createdAt,value
2023-02-08T00:01:16.663Z,976.75
2023-02-08T00:02:16.672Z,976.74
2023-02-08T00:03:16.699Z,976.72
2023-02-08T00:04:16.663Z,976.71
2023-02-08T00:05:16.544Z,976.72
2023-02-08T00:06:16.554Z,976.67
2023-02-08T00:07:16.662Z,976.68
2023-02-08T00:08:16.635Z,976.67
2023-02-08T00:09:16.554Z,976.63
2023-02-08T00:10:16.670Z,976.64
2023-02-08T00:11:16.642Z,976.63
2023-02-08T00:12:16.702Z,976.64
2023-02-08T00:13:16.669Z,976.62
2023-02-08T00:15:16.724Z,976.56
2023-02-08T00:17:16.809Z,976.55
2023-02-08T00:18:16.727Z,976.52
2023-02-08T00:19:16.703Z,976.47
2023-02-08T00:20:16.755Z,976.46
2023-02-08T00:21:16.594Z,976.48
2023-02-08T00:22:16.716Z,976.49
2023-02-08T00:23:16.583Z,976.47
2023-02-08T00:24:16.717Z,976.45
2023-02-08T00:25:16.596Z,976.4
2023-02-08T00:26:16.640Z,976.41
2023-02-08T00:27:16.604Z,976.44
2023-02-08T00:28:16.710Z,976.43
2023-02-08T00:29:16.665Z,976.4
2023-02-08T00:30:16.601Z,976.41
2023-02-08T00:31:16.776Z,976.4
2023-02-08T00:32:16.785Z,976.41
2023-02-08T00:34:16.723Z,976.37
2023-02-08T00:35:16.683Z,976.38
2023-02-08T00:36:16.626Z,976.34
2023-02-08T00:37:16.694Z,976.31
2023-02-08T00:38:16.612Z,976.32
2023-02-08T00:39:16.718Z,976.33
2023-02-08T00:40:16.626Z,976.29
2023-02-08T00:41:16.771Z,976.26
2023-02-08T00:43:16.780Z,976.25
2023-02-08T00:44:16.782Z,976.23
2023-02-08T00:45:16.734Z,976.2
2023-02-08T00:46:16.724Z,976.18
2023-02-08T00:47:17.946Z,976.19
2023-02-08T00:48:16.733Z,976.17
2023-02-08T00:51:16.825Z,976.14
2023-02-08T00:52:16.685Z,976.13
2023-02-08T00:53:16.659Z,976.11
2023-02-08T00:55:16.816Z,976.09
2023-02-08T00:56:16.675Z,976.12
2023-02-08T00:58:18.107Z,976.07
2023-02-08T00:59:16.703Z,976.12
2023-02-08T01:01:16.818Z,976.14
2023-02-08T01:02:16.812Z,976.13
2023-02-08T01:03:16.669Z,976.09
2023-02-08T01:05:16.812Z,976.1
2023-02-08T01:06:16.766Z,976.04
2023-02-08T01:07:16.845Z,976.06
2023-02-08T01:08:16.785Z,976.04
2023-02-08T01:09:16.769Z,976.03
2023-02-08T01:10:16.690Z,976.01
2023-02-08T01:11:16.808Z,976.04
2023-02-08T01:12:16.776Z,976.03
2023-02-08T01:13:16.845Z,976.01
2023-02-08T01:14:16.698Z,976.02
2023-02-08T01:15:16.804Z,975.97
2023-02-08T01:17:16.730Z,975.98
2023-02-08T01:18:16.786Z,975.96
2023-02-08T01:19:16.858Z,975.95
2023-02-08T01:20:16.826Z,975.98
2023-02-08T01:21:16.985Z,976.01
2023-02-08T01:22:18.109Z,975.95
2023-02-08T01:23:16.818Z,975.98
2023-02-08T01:24:16.770Z,975.99
2023-02-08T01:25:16.861Z,975.98
2023-02-08T01:26:16.736Z,975.93
2023-02-08T01:27:16.744Z,975.95
2023-02-08T01:28:16.874Z,975.96
2023-02-08T01:30:16.790Z,975.94
2023-02-08T01:31:16.912Z,975.93
2023-02-08T01:32:16.748Z,975.92
2023-02-08T01:33:16.827Z,975.89
2023-02-08T01:34:16.739Z,975.88
2023-02-08T01:35:16.749Z,975.84
2023-02-08T01:36:16.762Z,975.89
2023-02-08T01:37:16.900Z,975.84
2023-02-08T01:39:16.839Z,975.81
2023-02-08T01:40:16.758Z,975.8
2023-02-08T01:41:16.836Z,975.82
2023-02-08T01:44:16.925Z,975.8
2023-02-08T01:46:16.903Z,975.74
2023-02-08T01:47:16.866Z,975.76
2023-02-08T01:48:16.924Z,975.74
2023-02-08T01:49:16.896Z,975.75
2023-02-08T01:50:16.852Z,975.72
2023-02-08T01:51:16.957Z,975.73
2023-02-08T01:53:16.770Z,975.74
2023-02-08T01:54:16.933Z,975.73
2023-02-08T01:55:16.904Z,975.72
2023-02-08T01:56:16.861Z,975.7
2023-02-08T01:57:16.936Z,975.74
2023-02-08T01:58:16.900Z,975.75
2023-02-08T01:59:16.971Z,975.79
2023-02-08T02:00:16.948Z,975.78
2023-02-08T02:01:16.908Z,975.76
2023-02-08T02:02:16.804Z,975.73
2023-02-08T02:03:16.871Z,975.78
2023-02-08T02:04:16.938Z,975.7
2023-02-08T02:05:16.966Z,975.69
2023-02-08T02:06:16.809Z,975.72
2023-02-08T02:07:16.906Z,975.71
2023-02-08T02:08:16.832Z,975.74
2023-02-08T02:09:16.821Z,975.75
2023-02-08T02:10:16.826Z,975.72
2023-02-08T02:11:16.869Z,975.74
2023-02-08T02:12:16.943Z,975.72
2023-02-08T02:13:16.826Z,975.74
2023-02-08T02:14:16.833Z,975.73
2023-02-08T02:15:16.941Z,975.75
2023-02-08T02:16:16.970Z,975.74
2023-02-08T02:17:16.847Z,975.69
2023-02-08T02:18:16.857Z,975.68
2023-02-08T02:19:16.901Z,975.67
2023-02-08T02:20:16.998Z,975.63
2023-02-08T02:21:16.940Z,975.6
2023-02-08T02:22:16.949Z,975.63
2023-02-08T02:23:16.891Z,975.59
2023-02-08T02:24:16.943Z,975.57
2023-02-08T02:25:16.925Z,975.59
2023-02-08T02:26:16.865Z,975.63
2023-02-08T02:27:16.955Z,975.57
2023-02-08T02:29:17.039Z,975.54
2023-02-08T02:30:16.967Z,975.53
2023-02-08T02:31:17.006Z,975.52
2023-02-08T02:32:16.858Z,975.54
2023-02-08T02:34:16.895Z,975.48
2023-02-08T02:35:17.001Z,975.51
2023-02-08T02:36:16.983Z,975.45
2023-02-08T02:37:17.145Z,975.47
2023-02-08T02:38:16.917Z,975.45
2023-02-08T02:40:16.941Z,975.42
2023-02-08T02:41:17.061Z,975.43
2023-02-08T02:42:16.981Z,975.42
2023-02-08T02:45:17.050Z,975.4
2023-02-08T02:46:16.948Z,975.41
2023-02-08T02:48:16.986Z,975.44
2023-02-08T02:49:16.926Z,975.43
2023-02-08T02:51:16.911Z,975.41
2023-02-08T02:52:17.082Z,975.44
2023-02-08T02:53:17.031Z,975.42
2023-02-08T02:54:16.935Z,975.41
2023-02-08T02:55:16.941Z,975.45
2023-02-08T02:57:17.038Z,975.48
2023-02-08T02:58:16.951Z,975.5
2023-02-08T02:59:17.044Z,975.51
2023-02-08T03:00:17.016Z,975.5
2023-02-08T03:01:16.982Z,975.51
2023-02-08T03:02:17.065Z,975.45
2023-02-08T03:03:17.022Z,975.46
2023-02-08T03:04:17.140Z,975.47
2023-02-08T03:05:17.053Z,975.49
2023-02-08T03:06:16.954Z,975.47
2023-02-08T03:07:17.088Z,975.48
2023-02-08T03:08:16.957Z,975.49
2023-02-08T03:09:17.017Z,975.44
2023-02-08T03:10:16.989Z,975.46
2023-02-08T03:11:16.966Z,975.44
2023-02-08T03:12:17.129Z,975.41
2023-02-08T03:13:17.098Z,975.4
2023-02-08T03:14:16.989Z,975.42
2023-02-08T03:16:17.149Z,975.46
2023-02-08T03:17:17.007Z,975.45
2023-02-08T03:18:17.138Z,975.44
2023-02-08T03:20:16.991Z,975.42
2023-02-08T03:21:18.181Z,975.44
2023-02-08T03:22:16.997Z,975.42
2023-02-08T03:23:17.076Z,975.44
2023-02-08T03:24:17.009Z,975.46
2023-02-08T03:25:17.011Z,975.47
2023-02-08T03:26:17.011Z,975.45
2023-02-08T03:28:17.024Z,975.46
2023-02-08T03:29:17.013Z,975.45
2023-02-08T03:30:17.002Z,975.48
2023-02-08T03:31:17.180Z,975.49
2023-02-08T03:32:17.031Z,975.43
2023-02-08T03:33:17.047Z,975.42
2023-02-08T03:34:17.117Z,975.44
2023-02-08T03:35:17.097Z,975.43
2023-02-08T03:36:17.178Z,975.4
2023-02-08T03:37:17.134Z,975.43
2023-02-08T03:38:17.095Z,975.44
2023-02-08T03:39:17.171Z,975.4
2023-02-08T03:40:17.131Z,975.41
2023-02-08T03:41:17.196Z,975.4
2023-02-08T03:43:17.231Z,975.39
2023-02-08T03:44:17.226Z,975.4
2023-02-08T03:45:17.165Z,975.37
2023-02-08T03:46:17.225Z,975.4
2023-02-08T03:48:17.187Z,975.43
2023-02-08T03:49:17.069Z,975.41
2023-02-08T03:51:17.188Z,975.44
2023-02-08T03:52:17.094Z,975.43
2023-02-08T03:53:17.071Z,975.46
2023-02-08T03:54:17.182Z,975.45
2023-02-08T03:55:17.065Z,975.42
2023-02-08T03:57:17.208Z,975.44
2023-02-08T03:58:17.081Z,975.42
2023-02-08T03:59:17.108Z,975.43
2023-02-08T04:00:17.184Z,975.39
2023-02-08T04:02:18.450Z,975.4
2023-02-08T04:04:17.200Z,975.36
2023-02-08T04:05:17.108Z,975.33
2023-02-08T04:06:17.212Z,975.3
2023-02-08T04:08:17.092Z,975.29
2023-02-08T04:09:17.094Z,975.3
2023-02-08T04:10:17.104Z,975.29
2023-02-08T04:11:17.099Z,975.3
2023-02-08T04:12:17.109Z,975.31
2023-02-08T04:13:17.164Z,975.28
2023-02-08T04:14:17.135Z,975.26
2023-02-08T04:15:17.214Z,975.24
2023-02-08T04:16:17.171Z,975.29
2023-02-08T04:17:17.137Z,975.25
2023-02-08T04:18:17.216Z,975.22
2023-02-08T04:19:17.126Z,975.23
2023-02-08T04:20:17.147Z,975.24
2023-02-08T04:21:17.175Z,975.23
2023-02-08T04:22:17.285Z,975.18
2023-02-08T04:23:17.146Z,975.16
2023-02-08T04:25:17.184Z,975.14
2023-02-08T04:26:17.318Z,975.15
2023-02-08T04:27:17.220Z,975.11
2023-02-08T04:28:17.400Z,975.12
2023-02-08T04:29:17.274Z,975.11
2023-02-08T04:30:17.155Z,975.09
2023-02-08T04:31:17.393Z,975.11
2023-02-08T04:32:17.157Z,975.13
2023-02-08T04:33:17.248Z,975.1
2023-02-08T04:34:17.299Z,975.08
2023-02-08T04:36:17.235Z,975.09
2023-02-08T04:37:17.213Z,975.1
2023-02-08T04:38:17.273Z,975.11
2023-02-08T04:39:17.247Z,975.12
2023-02-08T04:40:17.171Z,975.13
2023-02-08T04:41:17.279Z,975.08
2023-02-08T04:42:17.249Z,975.07
2023-02-08T04:43:18.561Z,975.09
2023-02-08T04:44:17.194Z,975.06
2023-02-08T04:45:17.241Z,975.05
2023-02-08T04:47:17.288Z,975.02
2023-02-08T04:49:17.216Z,975.03
2023-02-08T04:50:17.283Z,975.04
2023-02-08T04:51:17.248Z,975.01
2023-02-08T04:52:17.214Z,975.07
2023-02-08T04:53:17.289Z,975.03
2023-02-08T04:54:17.408Z,975.04
2023-02-08T04:56:17.382Z,975.02
2023-02-08T04:59:17.320Z,975.03
2023-02-08T05:01:17.485Z,975.04
2023-02-08T05:03:17.324Z,975.02
2023-02-08T05:04:17.370Z,975.05
2023-02-08T05:05:17.301Z,975.04
2023-02-08T05:07:17.351Z,975.05
2023-02-08T05:08:17.238Z,975.03
2023-02-08T05:11:17.404Z,975.02
2023-02-08T05:12:17.404Z,975.03
2023-02-08T05:13:17.288Z,975.02
2023-02-08T05:14:17.270Z,974.98
2023-02-08T05:15:17.387Z,975.03
2023-02-08T05:16:17.378Z,975
2023-02-08T05:17:17.325Z,974.99
2023-02-08T05:18:18.224Z,974.97
2023-02-08T05:19:17.359Z,975.03
2023-02-08T05:20:17.332Z,974.93
2023-02-08T05:21:17.269Z,974.89
2023-02-08T05:22:17.392Z,974.98
2023-02-08T05:23:17.425Z,975
2023-02-08T05:24:17.413Z,974.99
2023-02-08T05:25:17.363Z,975.01
2023-02-08T05:27:17.274Z,974.98
2023-02-08T05:28:17.416Z,974.95
2023-02-08T05:29:17.370Z,975
2023-02-08T05:30:17.402Z,974.93
2023-02-08T05:31:17.503Z,975.02
2023-02-08T05:32:17.451Z,975.03
2023-02-08T05:33:17.465Z,975.04
2023-02-08T05:36:17.517Z,975.06
2023-02-08T05:38:17.536Z,975.05
2023-02-08T05:40:17.450Z,975.04
2023-02-08T05:42:17.477Z,975.03
2023-02-08T05:43:17.410Z,975.05
2023-02-08T05:45:17.426Z,975.03
2023-02-08T05:46:17.424Z,975.04
2023-02-08T05:47:17.323Z,975.02
2023-02-08T05:48:17.425Z,975.03
2023-02-08T05:49:17.385Z,975.02
2023-02-08T05:50:17.464Z,975
2023-02-08T05:51:17.417Z,975.06
2023-02-08T05:52:17.333Z,975.07
2023-02-08T05:53:17.326Z,975.05
2023-02-08T05:54:17.472Z,975.04
2023-02-08T05:55:17.389Z,975.01
2023-02-08T05:56:17.349Z,975.06
2023-02-08T05:57:17.429Z,975.03
2023-02-08T05:58:17.330Z,975.02
2023-02-08T05:59:17.464Z,975.03
2023-02-08T06:00:17.345Z,975.01
2023-02-08T06:01:17.494Z,975.08
2023-02-08T06:02:17.356Z,975.06
2023-02-08T06:03:17.415Z,975.1
2023-02-08T06:05:17.400Z,975.08
2023-02-08T06:06:17.454Z,975.11
2023-02-08T06:07:17.511Z,975.09
2023-02-08T06:10:17.583Z,975.11
2023-02-08T06:11:17.391Z,975.12
2023-02-08T06:12:17.456Z,975.13
2023-02-08T06:14:17.387Z,975.19
2023-02-08T06:15:17.467Z,975.18
2023-02-08T06:16:19.998Z,975.17
2023-02-08T06:17:17.506Z,975.15
2023-02-08T06:18:17.450Z,975.18
2023-02-08T06:20:17.397Z,975.17
2023-02-08T06:21:17.467Z,975.19
2023-02-08T06:22:17.455Z,975.21
2023-02-08T06:23:17.492Z,975.22
2023-02-08T06:24:17.566Z,975.2
2023-02-08T06:25:17.401Z,975.22
2023-02-08T06:26:17.505Z,975.24
2023-02-08T06:27:17.481Z,975.3
2023-02-08T06:29:17.418Z,975.28
2023-02-08T06:30:17.473Z,975.3
2023-02-08T06:31:18.773Z,975.31
2023-02-08T06:32:17.529Z,975.33
2023-02-08T06:33:17.471Z,975.35
2023-02-08T06:34:17.538Z,975.38
2023-02-08T06:35:17.508Z,975.4
2023-02-08T06:36:17.473Z,975.37
2023-02-08T06:37:17.427Z,975.39
2023-02-08T06:38:17.519Z,975.41
2023-02-08T06:41:17.603Z,975.43
2023-02-08T06:42:17.603Z,975.47
2023-02-08T06:43:17.546Z,975.46
2023-02-08T06:44:17.441Z,975.48
2023-02-08T06:45:17.443Z,975.45
2023-02-08T06:46:17.559Z,975.44
2023-02-08T06:47:17.528Z,975.48
2023-02-08T06:48:17.621Z,975.5
2023-02-08T06:49:17.565Z,975.49
2023-02-08T06:50:17.449Z,975.46
2023-02-08T06:51:17.605Z,975.48
2023-02-08T06:53:17.542Z,975.45
2023-02-08T06:54:17.468Z,975.5
2023-02-08T06:55:17.567Z,975.49
2023-02-08T06:57:18.669Z,975.53
2023-02-08T06:58:17.481Z,975.51
2023-02-08T06:59:17.538Z,975.55
2023-02-08T07:00:17.614Z,975.52
2023-02-08T07:01:17.549Z,975.55
2023-02-08T07:02:17.568Z,975.53
2023-02-08T07:03:17.556Z,975.52
2023-02-08T07:04:17.496Z,975.53
2023-02-08T07:05:17.486Z,975.55
2023-02-08T07:06:17.499Z,975.57
2023-02-08T07:07:17.578Z,975.54
2023-02-08T07:08:17.669Z,975.53
2023-02-08T07:09:17.619Z,975.56
2023-02-08T07:10:17.501Z,975.54
2023-02-08T07:11:17.556Z,975.56
2023-02-08T07:12:17.507Z,975.55
2023-02-08T07:13:17.595Z,975.61
2023-02-08T07:14:17.554Z,975.52
2023-02-08T07:15:17.506Z,975.53
2023-02-08T07:16:17.576Z,975.51
2023-02-08T07:17:17.662Z,975.53
2023-02-08T07:18:17.517Z,975.49
2023-02-08T07:19:17.597Z,975.55
2023-02-08T07:20:17.534Z,975.5
2023-02-08T07:21:17.643Z,975.55
2023-02-08T07:22:17.601Z,975.52
2023-02-08T07:23:17.677Z,975.55
2023-02-08T07:24:17.748Z,975.59
2023-02-08T07:25:17.612Z,975.57
2023-02-08T07:26:17.552Z,975.64
2023-02-08T07:27:17.634Z,975.65
2023-02-08T07:28:17.681Z,975.61
2023-02-08T07:29:17.676Z,975.64
2023-02-08T07:30:17.538Z,975.63
2023-02-08T07:31:17.562Z,975.67
2023-02-08T07:32:17.687Z,975.65
2023-02-08T07:33:17.705Z,975.69
2023-02-08T07:36:17.801Z,975.67
2023-02-08T07:37:17.742Z,975.66
2023-02-08T07:38:19.169Z,975.65
2023-02-08T07:40:18.918Z,975.63
2023-02-08T07:41:17.724Z,975.62
2023-02-08T07:42:17.586Z,975.65
2023-02-08T07:43:17.638Z,975.69
2023-02-08T07:44:17.718Z,975.68
2023-02-08T07:46:17.629Z,975.73
2023-02-08T07:48:17.693Z,975.72
2023-02-08T07:50:17.739Z,975.7
2023-02-08T07:52:17.612Z,975.73
2023-02-08T07:53:17.629Z,975.71
2023-02-08T07:54:17.606Z,975.73
2023-02-08T07:55:17.794Z,975.72
2023-02-08T07:58:17.725Z,975.73
2023-02-08T08:00:17.714Z,975.77
2023-02-08T08:01:22.186Z,975.76
2023-02-08T08:02:17.920Z,975.8
2023-02-08T08:03:17.619Z,975.82
2023-02-08T08:04:17.802Z,975.79
2023-02-08T08:05:17.729Z,975.81
2023-02-08T08:06:17.633Z,975.84
2023-02-08T08:07:17.659Z,975.87
2023-02-08T08:09:17.708Z,975.86
2023-02-08T08:10:17.657Z,975.93
2023-02-08T08:11:17.657Z,975.88
2023-02-08T08:12:17.808Z,975.93
2023-02-08T08:13:19.047Z,975.92
2023-02-08T08:14:17.692Z,975.95
2023-02-08T08:16:17.851Z,975.97
2023-02-08T08:18:22.230Z,976.03
2023-02-08T08:19:17.810Z,975.99
2023-02-08T08:20:17.754Z,976.01
2023-02-08T08:21:17.814Z,976.02
2023-02-08T08:22:17.677Z,976.06
2023-02-08T08:24:17.709Z,976.07
2023-02-08T08:25:17.678Z,976.05
2023-02-08T08:26:17.683Z,976.03
2023-02-08T08:27:17.828Z,976.07
2023-02-08T08:28:17.906Z,976.03
2023-02-08T08:29:17.677Z,975.99
2023-02-08T08:30:17.680Z,976.03
2023-02-08T08:31:17.923Z,976.07
2023-02-08T08:32:17.761Z,976.05
2023-02-08T08:33:17.713Z,976.06
2023-02-08T08:34:17.824Z,976.05
2023-02-08T08:35:17.703Z,976.02
2023-02-08T08:36:19.190Z,976.09
2023-02-08T08:37:17.798Z,976.08
2023-02-08T08:38:17.767Z,976.12
2023-02-08T08:39:17.760Z,976.1
2023-02-08T08:40:17.797Z,976.08
2023-02-08T08:41:17.773Z,976.05
2023-02-08T08:42:17.737Z,976.08
2023-02-08T08:43:17.711Z,976.07
2023-02-08T08:44:17.756Z,976.05
2023-02-08T08:45:17.841Z,976
2023-02-08T08:46:17.902Z,976.04
2023-02-08T08:47:17.726Z,976.05
2023-02-08T08:48:17.730Z,976.07
2023-02-08T08:49:17.815Z,976.08
2023-02-08T08:51:17.816Z,976.11
2023-02-08T08:52:17.828Z,976.12
2023-02-08T08:54:17.856Z,976.11
2023-02-08T08:55:17.826Z,976.15
2023-02-08T08:56:17.782Z,976.12
2023-02-08T08:59:17.813Z,976.09
2023-02-08T09:00:17.869Z,976.12
2023-02-08T09:01:17.884Z,976.08
2023-02-08T09:02:17.907Z,976.07
2023-02-08T09:03:17.907Z,976.05
2023-02-08T09:04:17.831Z,976.07
2023-02-08T09:05:17.802Z,976.03
2023-02-08T09:06:17.877Z,976
2023-02-08T09:07:17.835Z,976.05
2023-02-08T09:08:17.911Z,976.03
2023-02-08T09:09:17.792Z,976.02
2023-02-08T09:10:17.830Z,976.03
2023-02-08T09:11:18.001Z,976
2023-02-08T09:12:17.881Z,975.99
2023-02-08T09:13:17.851Z,975.97
2023-02-08T09:14:17.802Z,976
2023-02-08T09:16:17.982Z,976.03
2023-02-08T09:17:17.850Z,976.02
2023-02-08T09:18:17.882Z,976.04
2023-02-08T09:19:17.943Z,976.03
2023-02-08T09:20:18.946Z,976.08
2023-02-08T09:21:17.893Z,976.07
2023-02-08T09:23:17.811Z,976.12
2023-02-08T09:24:17.921Z,976.11
2023-02-08T09:25:17.966Z,976.16
2023-02-08T09:27:17.903Z,976.15
2023-02-08T09:29:17.883Z,976.21
2023-02-08T09:31:17.972Z,976.22
2023-02-08T09:32:17.870Z,976.21
2023-02-08T09:33:17.827Z,976.22
2023-02-08T09:34:17.889Z,976.18
2023-02-08T09:35:17.929Z,976.19
2023-02-08T09:36:17.831Z,976.23
2023-02-08T09:37:17.975Z,976.2
2023-02-08T09:38:17.962Z,976.21
2023-02-08T09:39:17.837Z,976.23
2023-02-08T09:40:17.844Z,976.2
2023-02-08T09:41:17.947Z,976.19
2023-02-08T09:42:17.919Z,976.2
2023-02-08T09:43:17.877Z,976.22
2023-02-08T09:44:18.061Z,976.23
2023-02-08T09:45:17.874Z,976.2
2023-02-08T09:46:17.879Z,976.19
2023-02-08T09:47:17.960Z,976.15
2023-02-08T09:48:17.918Z,976.14
2023-02-08T09:49:18.004Z,976.13
2023-02-08T09:50:17.958Z,976.15
2023-02-08T09:51:17.919Z,976.12
2023-02-08T09:52:17.871Z,976.13
2023-02-08T09:55:18.098Z,976.11
2023-02-08T09:56:17.886Z,976.13
2023-02-08T09:57:17.884Z,976.12
2023-02-08T09:59:17.965Z,976.13
2023-02-08T10:00:17.899Z,976.12
2023-02-08T10:02:18.072Z,976.14
2023-02-08T10:03:17.951Z,976.12
2023-02-08T10:04:18.012Z,976.13
2023-02-08T10:05:17.986Z,976.11
2023-02-08T10:06:18.051Z,976.15
2023-02-08T10:07:18.022Z,976.17
2023-02-08T10:08:18.016Z,976.15
2023-02-08T10:09:17.942Z,976.19
2023-02-08T10:10:18.019Z,976.15
2023-02-08T10:11:18.000Z,976.17
2023-02-08T10:12:18.049Z,976.19
2023-02-08T10:16:18.009Z,976.18
2023-02-08T10:17:18.006Z,976.2
2023-02-08T10:18:17.937Z,976.21
2023-02-08T10:19:18.047Z,976.22
2023-02-08T10:20:18.034Z,976.21
2023-02-08T10:22:18.030Z,976.24
2023-02-08T10:23:20.560Z,976.22
2023-02-08T10:24:18.161Z,976.17
2023-02-08T10:25:18.049Z,976.18
2023-02-08T10:27:18.016Z,976.2
2023-02-08T10:28:17.971Z,976.19
2023-02-08T10:29:18.031Z,976.18
2023-02-08T10:30:17.989Z,976.22
2023-02-08T10:31:18.122Z,976.2
2023-02-08T10:32:17.965Z,976.22
2023-02-08T10:33:17.970Z,976.17
2023-02-08T10:34:17.958Z,976.18
2023-02-08T10:36:18.133Z,976.2
2023-02-08T10:37:18.082Z,976.17
2023-02-08T10:38:18.128Z,976.18
2023-02-08T10:39:17.968Z,976.21
2023-02-08T10:40:18.019Z,976.15
2023-02-08T10:42:18.165Z,976.1
2023-02-08T10:43:18.076Z,976.07
2023-02-08T10:44:18.048Z,976.09
2023-02-08T10:45:24.152Z,976.04
2023-02-08T10:46:18.019Z,976.01
2023-02-08T10:47:17.990Z,976.09
2023-02-08T10:48:18.110Z,976.04
2023-02-08T10:49:18.008Z,976.07
2023-02-08T10:50:18.007Z,976.06
2023-02-08T10:51:18.105Z,976.05
2023-02-08T10:52:18.070Z,976.07
2023-02-08T10:55:18.196Z,975.99
2023-02-08T10:56:18.245Z,976.04
2023-02-08T10:57:18.017Z,976.03
2023-02-08T10:59:18.078Z,976.06
2023-02-08T11:00:18.112Z,976.07
2023-02-08T11:01:18.218Z,976.09
2023-02-08T11:02:18.036Z,976.05
2023-02-08T11:04:18.200Z,976.04
2023-02-08T11:05:18.043Z,976.05
2023-02-08T11:06:18.024Z,976.03
2023-02-08T11:07:19.400Z,976.02
2023-02-08T11:08:18.208Z,976.09
2023-02-08T11:09:18.132Z,976.07
2023-02-08T11:11:18.229Z,976.02
2023-02-08T11:13:18.090Z,976.01
2023-02-08T11:14:18.167Z,976.05
2023-02-08T11:15:18.141Z,976
2023-02-08T11:17:18.053Z,975.99
2023-02-08T11:18:18.179Z,976
2023-02-08T11:19:18.208Z,975.97
2023-02-08T11:20:18.177Z,975.96
2023-02-08T11:23:18.281Z,975.92
2023-02-08T11:24:18.156Z,975.93
2023-02-08T11:25:18.212Z,975.9
2023-02-08T11:26:18.093Z,975.85
2023-02-08T11:27:18.146Z,975.83
2023-02-08T11:28:18.345Z,975.84
2023-02-08T11:29:18.221Z,975.83
2023-02-08T11:30:18.188Z,975.85
2023-02-08T11:32:18.275Z,975.86
2023-02-08T11:33:18.165Z,975.8
2023-02-08T11:34:18.115Z,975.82
2023-02-08T11:35:18.101Z,975.86
2023-02-08T11:36:18.178Z,975.84
2023-02-08T11:37:18.128Z,975.8
2023-02-08T11:38:18.201Z,975.79
2023-02-08T11:39:18.174Z,975.77
2023-02-08T11:40:18.242Z,975.74
2023-02-08T11:42:18.184Z,975.76
2023-02-08T11:44:18.218Z,975.75
2023-02-08T11:45:18.286Z,975.72
2023-02-08T11:47:20.511Z,975.71
2023-02-08T11:48:18.244Z,975.72
2023-02-08T11:49:18.253Z,975.74
2023-02-08T11:51:18.212Z,975.75
2023-02-08T11:52:18.262Z,975.74
2023-02-08T11:53:18.218Z,975.69
2023-02-08T11:55:18.301Z,975.73
2023-02-08T11:56:18.167Z,975.77
2023-02-08T11:57:18.245Z,975.74
2023-02-08T12:00:18.233Z,975.75
2023-02-08T12:01:18.182Z,975.72
2023-02-08T12:03:18.239Z,975.73
2023-02-08T12:04:18.278Z,975.69
2023-02-08T12:05:18.341Z,975.68
2023-02-08T12:06:18.207Z,975.72
2023-02-08T12:07:18.276Z,975.73
2023-02-08T12:08:18.174Z,975.75
2023-02-08T12:09:18.315Z,975.78
2023-02-08T12:11:18.246Z,975.76
2023-02-08T12:12:18.202Z,975.74
2023-02-08T12:13:18.287Z,975.69
2023-02-08T12:14:18.201Z,975.7
2023-02-08T12:15:18.351Z,975.73
2023-02-08T12:16:18.322Z,975.71
2023-02-08T12:18:18.370Z,975.72
2023-02-08T12:19:18.223Z,975.74
2023-02-08T12:20:18.276Z,975.66
2023-02-08T12:21:18.270Z,975.58
2023-02-08T12:22:18.204Z,975.63
2023-02-08T12:23:18.368Z,975.61
2023-02-08T12:24:18.329Z,975.64
2023-02-08T12:25:18.297Z,975.59
2023-02-08T12:27:18.340Z,975.56
2023-02-08T12:29:19.281Z,975.54
2023-02-08T12:30:18.322Z,975.52
2023-02-08T12:32:18.228Z,975.43
2023-02-08T12:33:18.344Z,975.41
2023-02-08T12:34:18.320Z,975.39
2023-02-08T12:35:24.098Z,975.38
2023-02-08T12:36:18.258Z,975.33
2023-02-08T12:37:18.310Z,975.35
2023-02-08T12:38:18.415Z,975.28
2023-02-08T12:39:20.304Z,975.27
2023-02-08T12:41:18.325Z,975.26
2023-02-08T12:42:18.255Z,975.3
2023-02-08T12:43:18.331Z,975.25
2023-02-08T12:44:18.291Z,975.24
2023-02-08T12:45:18.257Z,975.19
2023-02-08T12:46:18.515Z,975.11
2023-02-08T12:47:18.284Z,975.09
2023-02-08T12:48:18.456Z,975.08
2023-02-08T12:49:18.377Z,975.12
2023-02-08T12:50:18.299Z,975.09
2023-02-08T12:51:18.352Z,975.03
2023-02-08T12:52:18.285Z,975.04
2023-02-08T12:53:18.408Z,975.07
2023-02-08T12:54:18.376Z,975.08
2023-02-08T12:55:18.334Z,975.05
2023-02-08T12:56:18.282Z,975.07
2023-02-08T12:57:18.370Z,975.05
2023-02-08T12:58:18.278Z,975.06
2023-02-08T12:59:18.409Z,975.04
2023-02-08T13:00:18.282Z,975.01
2023-02-08T13:01:18.497Z,974.97
2023-02-08T13:03:18.441Z,974.91
2023-02-08T13:04:18.350Z,974.89
2023-02-08T13:05:18.420Z,974.95
2023-02-08T13:06:18.445Z,975.01
2023-02-08T13:07:18.469Z,975.03
2023-02-08T13:08:18.416Z,974.96
2023-02-08T13:09:18.384Z,974.97
2023-02-08T13:10:18.336Z,974.98
2023-02-08T13:11:20.263Z,975.01
2023-02-08T13:12:18.391Z,975.03
2023-02-08T13:13:18.463Z,974.99
2023-02-08T13:14:18.429Z,974.98
2023-02-08T13:15:28.765Z,974.97
2023-02-08T13:16:18.383Z,974.98
2023-02-08T13:17:18.436Z,974.99
2023-02-08T13:18:18.352Z,975
2023-02-08T13:19:18.338Z,974.98
2023-02-08T13:21:18.578Z,975
2023-02-08T13:22:18.388Z,974.97
2023-02-08T13:23:18.437Z,974.95
2023-02-08T13:24:18.767Z,974.94
2023-02-08T13:25:18.352Z,974.96
2023-02-08T13:26:18.376Z,974.98
2023-02-08T13:27:18.529Z,974.94
2023-02-08T13:28:18.511Z,974.93
2023-02-08T13:29:18.456Z,974.89
2023-02-08T13:30:18.518Z,974.87
2023-02-08T13:32:18.523Z,974.89
2023-02-08T13:34:18.470Z,974.87
2023-02-08T13:35:18.397Z,974.89
2023-02-08T13:37:24.528Z,974.9
2023-02-08T13:38:18.494Z,974.94
2023-02-08T13:39:18.425Z,974.93
2023-02-08T13:40:18.391Z,974.94
2023-02-08T13:41:18.420Z,974.92
2023-02-08T13:42:18.403Z,974.9
2023-02-08T13:43:29.400Z,974.85
2023-02-08T13:44:18.584Z,974.84
2023-02-08T13:45:18.454Z,974.82
2023-02-08T13:47:18.480Z,974.79
2023-02-08T13:48:18.461Z,974.73
2023-02-08T13:49:18.521Z,974.72
2023-02-08T13:52:18.523Z,974.68
2023-02-08T13:53:18.482Z,974.67
2023-02-08T13:55:18.523Z,974.71
2023-02-08T13:56:18.601Z,974.72
2023-02-08T13:57:18.466Z,974.71
2023-02-08T13:58:18.516Z,974.72
2023-02-08T13:59:18.476Z,974.78
2023-02-08T14:00:18.449Z,974.75
2023-02-08T14:01:18.535Z,974.73
2023-02-08T14:02:18.497Z,974.7
2023-02-08T14:03:18.446Z,974.72
2023-02-08T14:04:18.461Z,974.76
2023-02-08T14:06:18.658Z,974.74
2023-02-08T14:08:18.529Z,974.81
2023-02-08T14:09:18.471Z,974.89
2023-02-08T14:10:18.550Z,974.84
2023-02-08T14:11:18.476Z,974.86
2023-02-08T14:12:18.573Z,974.84
2023-02-08T14:13:18.547Z,974.86
2023-02-08T14:14:18.622Z,974.89
2023-02-08T14:16:18.583Z,974.86
2023-02-08T14:17:18.481Z,974.9
2023-02-08T14:18:18.581Z,974.91
2023-02-08T14:19:18.586Z,974.96
2023-02-08T14:20:18.653Z,974.9
2023-02-08T14:21:18.591Z,974.88
2023-02-08T14:22:18.505Z,974.94
2023-02-08T14:23:18.496Z,974.97
2023-02-08T14:24:18.496Z,974.99
2023-02-08T14:25:18.556Z,974.97
2023-02-08T14:26:18.518Z,975.01
2023-02-08T14:27:18.608Z,975
2023-02-08T14:28:18.633Z,974.98
2023-02-08T14:29:20.657Z,974.99
2023-02-08T14:30:18.525Z,974.98
2023-02-08T14:31:18.676Z,974.99
2023-02-08T14:32:18.525Z,974.92
2023-02-08T14:34:18.636Z,974.89
2023-02-08T14:35:18.548Z,974.95
2023-02-08T14:37:18.573Z,974.96
2023-02-08T14:38:18.521Z,975.01
2023-02-08T14:39:18.533Z,975.05
2023-02-08T14:40:18.545Z,975.15
2023-02-08T14:41:18.657Z,975.16
2023-02-08T14:42:18.537Z,975.13
2023-02-08T14:43:18.542Z,975.17
2023-02-08T14:44:18.665Z,975.18
2023-02-08T14:45:18.570Z,975.23
2023-02-08T14:46:18.704Z,975.2
2023-02-08T14:47:18.568Z,975.21
2023-02-08T14:48:18.547Z,975.19